sensor_id;sensor_type;location;lat;lon;timestamp;P1;durP1;ratioP1;P2;durP2;ratioP2
41903;SDS011;27586;51.124;4.182;2023-09-07T00:01:53;6.22;;;5.15;;
41903;SDS011;27586;51.124;4.182;2023-09-07T00:04:19;7.28;;;5.18;;
41903;SDS011;27586;51.124;4.182;2023-09-07T00:06:46;5.85;;;5.07;;
41903;SDS011;27586;51.124;4.182;2023-09-07T00:09:11;7.18;;;5.63;;
41903;SDS011;27586;51.124;4.182;2023-09-07T00:11:38;6.50;;;5.72;;
41903;SDS011;27586;51.124;4.182;2023-09-07T00:14:04;6.10;;;5.07;;
41903;SDS011;27586;51.124;4.182;2023-09-07T00:16:32;8.05;;;5.00;;
41903;SDS011;27586;51.124;4.182;2023-09-07T00:19:03;7.97;;;5.35;;
41903;SDS011;27586;51.124;4.182;2023-09-07T00:21:29;7.80;;;5.47;;
41903;SDS011;27586;51.124;4.182;2023-09-07T00:23:55;6.20;;;5.30;;
41903;SDS011;27586;51.124;4.182;2023-09-07T00:26:21;8.68;;;5.18;;
41903;SDS011;27586;51.124;4.182;2023-09-07T00:28:46;5.20;;;4.68;;
41903;SDS011;27586;51.124;4.182;2023-09-07T00:31:12;7.40;;;5.15;;
41903;SDS011;27586;51.124;4.182;2023-09-07T00:33:38;7.45;;;5.20;;
41903;SDS011;27586;51.124;4.182;2023-09-07T00:36:04;7.93;;;5.38;;
41903;SDS011;27586;51.124;4.182;2023-09-07T00:38:30;9.25;;;5.65;;
41903;SDS011;27586;51.124;4.182;2023-09-07T00:40:55;7.40;;;5.45;;
41903;SDS011;27586;51.124;4.182;2023-09-07T00:43:21;8.48;;;6.05;;
41903;SDS011;27586;51.124;4.182;2023-09-07T00:45:47;5.68;;;5.13;;
41903;SDS011;27586;51.124;4.182;2023-09-07T00:48:13;7.70;;;5.90;;
41903;SDS011;27586;51.124;4.182;2023-09-07T00:50:41;10.35;;;5.88;;
41903;SDS011;27586;51.124;4.182;2023-09-07T00:53:07;6.80;;;6.03;;
41903;SDS011;27586;51.124;4.182;2023-09-07T00:55:33;6.55;;;5.22;;
41903;SDS011;27586;51.124;4.182;2023-09-07T00:58:01;6.97;;;5.72;;
41903;SDS011;27586;51.124;4.182;2023-09-07T01:00:28;8.48;;;5.38;;
41903;SDS011;27586;51.124;4.182;2023-09-07T01:02:54;9.23;;;5.68;;
41903;SDS011;27586;51.124;4.182;2023-09-07T01:05:21;5.72;;;5.22;;
41903;SDS011;27586;51.124;4.182;2023-09-07T01:07:57;6.28;;;5.68;;
41903;SDS011;27586;51.124;4.182;2023-09-07T01:10:28;6.65;;;5.78;;
41903;SDS011;27586;51.124;4.182;2023-09-07T01:12:54;7.90;;;5.75;;
41903;SDS011;27586;51.124;4.182;2023-09-07T01:15:20;7.43;;;6.00;;
41903;SDS011;27586;51.124;4.182;2023-09-07T01:17:45;7.20;;;5.82;;
41903;SDS011;27586;51.124;4.182;2023-09-07T01:20:11;8.63;;;6.30;;
41903;SDS011;27586;51.124;4.182;2023-09-07T01:22:38;7.45;;;5.93;;
41903;SDS011;27586;51.124;4.182;2023-09-07T01:25:05;8.23;;;6.03;;
41903;SDS011;27586;51.124;4.182;2023-09-07T01:27:32;7.22;;;5.55;;
41903;SDS011;27586;51.124;4.182;2023-09-07T01:29:58;7.78;;;6.13;;
41903;SDS011;27586;51.124;4.182;2023-09-07T01:32:24;8.88;;;6.22;;
41903;SDS011;27586;51.124;4.182;2023-09-07T01:34:52;7.45;;;6.03;;
41903;SDS011;27586;51.124;4.182;2023-09-07T01:37:21;6.25;;;5.65;;
41903;SDS011;27586;51.124;4.182;2023-09-07T01:39:47;8.13;;;6.38;;
41903;SDS011;27586;51.124;4.182;2023-09-07T01:42:14;7.22;;;6.47;;
41903;SDS011;27586;51.124;4.182;2023-09-07T01:44:39;6.72;;;5.97;;
41903;SDS011;27586;51.124;4.182;2023-09-07T01:47:05;6.72;;;6.10;;
41903;SDS011;27586;51.124;4.182;2023-09-07T01:49:31;8.60;;;6.30;;
41903;SDS011;27586;51.124;4.182;2023-09-07T01:51:57;7.13;;;6.05;;
41903;SDS011;27586;51.124;4.182;2023-09-07T01:54:22;7.47;;;6.30;;
41903;SDS011;27586;51.124;4.182;2023-09-07T01:56:48;9.52;;;6.35;;
41903;SDS011;27586;51.124;4.182;2023-09-07T01:59:13;8.80;;;6.45;;
41903;SDS011;27586;51.124;4.182;2023-09-07T02:01:39;6.72;;;6.10;;
41903;SDS011;27586;51.124;4.182;2023-09-07T02:04:05;8.40;;;6.40;;
41903;SDS011;27586;51.124;4.182;2023-09-07T02:06:31;6.60;;;6.00;;
41903;SDS011;27586;51.124;4.182;2023-09-07T02:08:56;7.07;;;6.38;;
41903;SDS011;27586;51.124;4.182;2023-09-07T02:11:22;7.18;;;6.47;;
41903;SDS011;27586;51.124;4.182;2023-09-07T02:13:48;7.97;;;5.95;;
41903;SDS011;27586;51.124;4.182;2023-09-07T02:16:14;6.80;;;6.10;;
41903;SDS011;27586;51.124;4.182;2023-09-07T02:18:40;8.55;;;6.60;;
41903;SDS011;27586;51.124;4.182;2023-09-07T02:21:08;7.40;;;6.53;;
41903;SDS011;27586;51.124;4.182;2023-09-07T02:23:34;7.40;;;6.32;;
41903;SDS011;27586;51.124;4.182;2023-09-07T02:26:02;7.00;;;6.25;;
41903;SDS011;27586;51.124;4.182;2023-09-07T02:28:29;7.88;;;6.63;;
41903;SDS011;27586;51.124;4.182;2023-09-07T02:30:55;6.93;;;6.22;;
41903;SDS011;27586;51.124;4.182;2023-09-07T02:33:27;6.88;;;6.28;;
41903;SDS011;27586;51.124;4.182;2023-09-07T02:35:53;11.23;;;6.95;;
41903;SDS011;27586;51.124;4.182;2023-09-07T02:38:19;7.82;;;6.35;;
41903;SDS011;27586;51.124;4.182;2023-09-07T02:40:44;7.68;;;6.97;;
41903;SDS011;27586;51.124;4.182;2023-09-07T02:43:11;7.75;;;6.10;;
41903;SDS011;27586;51.124;4.182;2023-09-07T02:45:37;12.25;;;6.95;;
41903;SDS011;27586;51.124;4.182;2023-09-07T02:48:04;7.82;;;6.53;;
41903;SDS011;27586;51.124;4.182;2023-09-07T02:50:32;7.75;;;6.88;;
41903;SDS011;27586;51.124;4.182;2023-09-07T02:52:59;8.48;;;6.75;;
41903;SDS011;27586;51.124;4.182;2023-09-07T02:55:26;8.18;;;6.80;;
41903;SDS011;27586;51.124;4.182;2023-09-07T02:57:56;7.40;;;6.78;;
41903;SDS011;27586;51.124;4.182;2023-09-07T03:00:22;8.23;;;6.70;;
41903;SDS011;27586;51.124;4.182;2023-09-07T03:02:48;7.82;;;6.80;;
41903;SDS011;27586;51.124;4.182;2023-09-07T03:05:15;7.43;;;6.63;;
41903;SDS011;27586;51.124;4.182;2023-09-07T03:07:41;7.10;;;6.40;;
41903;SDS011;27586;51.124;4.182;2023-09-07T03:10:06;8.82;;;6.90;;
41903;SDS011;27586;51.124;4.182;2023-09-07T03:12:33;7.75;;;6.80;;
41903;SDS011;27586;51.124;4.182;2023-09-07T03:14:59;7.07;;;6.38;;
41903;SDS011;27586;51.124;4.182;2023-09-07T03:17:28;6.63;;;5.95;;
41903;SDS011;27586;51.124;4.182;2023-09-07T03:19:54;7.53;;;6.70;;
41903;SDS011;27586;51.124;4.182;2023-09-07T03:22:20;8.90;;;6.95;;
41903;SDS011;27586;51.124;4.182;2023-09-07T03:24:46;7.90;;;7.00;;
41903;SDS011;27586;51.124;4.182;2023-09-07T03:27:12;7.65;;;6.32;;
41903;SDS011;27586;51.124;4.182;2023-09-07T03:29:37;7.15;;;6.43;;
41903;SDS011;27586;51.124;4.182;2023-09-07T03:32:03;9.93;;;6.95;;
41903;SDS011;27586;51.124;4.182;2023-09-07T03:34:29;8.68;;;6.70;;
41903;SDS011;27586;51.124;4.182;2023-09-07T03:36:55;7.43;;;6.72;;
41903;SDS011;27586;51.124;4.182;2023-09-07T03:39:20;7.80;;;7.00;;
41903;SDS011;27586;51.124;4.182;2023-09-07T03:41:49;8.30;;;7.45;;
41903;SDS011;27586;51.124;4.182;2023-09-07T03:44:14;7.82;;;7.07;;
41903;SDS011;27586;51.124;4.182;2023-09-07T03:46:40;7.72;;;7.03;;
41903;SDS011;27586;51.124;4.182;2023-09-07T03:49:06;8.32;;;7.53;;
41903;SDS011;27586;51.124;4.182;2023-09-07T03:51:32;9.00;;;7.68;;
41903;SDS011;27586;51.124;4.182;2023-09-07T03:53:58;9.00;;;7.15;;
41903;SDS011;27586;51.124;4.182;2023-09-07T03:56:24;9.38;;;7.22;;
41903;SDS011;27586;51.124;4.182;2023-09-07T03:58:50;8.20;;;7.50;;
41903;SDS011;27586;51.124;4.182;2023-09-07T04:01:15;10.13;;;7.72;;
41903;SDS011;27586;51.124;4.182;2023-09-07T04:03:41;8.00;;;7.20;;
41903;SDS011;27586;51.124;4.182;2023-09-07T04:06:10;8.60;;;7.80;;
41903;SDS011;27586;51.124;4.182;2023-09-07T04:08:36;8.15;;;7.28;;
41903;SDS011;27586;51.124;4.182;2023-09-07T04:11:05;8.30;;;7.50;;
41903;SDS011;27586;51.124;4.182;2023-09-07T04:13:31;8.30;;;7.50;;
41903;SDS011;27586;51.124;4.182;2023-09-07T04:15:57;7.65;;;6.93;;
41903;SDS011;27586;51.124;4.182;2023-09-07T04:18:23;8.60;;;7.60;;
41903;SDS011;27586;51.124;4.182;2023-09-07T04:20:49;10.77;;;7.60;;
41903;SDS011;27586;51.124;4.182;2023-09-07T04:23:14;9.23;;;7.82;;
41903;SDS011;27586;51.124;4.182;2023-09-07T04:25:40;8.30;;;7.50;;
41903;SDS011;27586;51.124;4.182;2023-09-07T04:28:06;7.65;;;6.85;;
41903;SDS011;27586;51.124;4.182;2023-09-07T04:30:38;8.32;;;7.40;;
41903;SDS011;27586;51.124;4.182;2023-09-07T04:33:04;8.70;;;7.78;;
41903;SDS011;27586;51.124;4.182;2023-09-07T04:35:30;9.85;;;7.18;;
41903;SDS011;27586;51.124;4.182;2023-09-07T04:37:58;8.38;;;7.50;;
41903;SDS011;27586;51.124;4.182;2023-09-07T04:40:24;8.90;;;7.97;;
41903;SDS011;27586;51.124;4.182;2023-09-07T04:42:50;8.90;;;7.68;;
41903;SDS011;27586;51.124;4.182;2023-09-07T04:45:16;7.70;;;7.00;;
41903;SDS011;27586;51.124;4.182;2023-09-07T04:47:42;10.65;;;8.13;;
41903;SDS011;27586;51.124;4.182;2023-09-07T04:50:08;8.88;;;7.97;;
41903;SDS011;27586;51.124;4.182;2023-09-07T04:52:34;8.45;;;7.65;;
41903;SDS011;27586;51.124;4.182;2023-09-07T04:55:00;8.75;;;7.88;;
41903;SDS011;27586;51.124;4.182;2023-09-07T04:57:26;9.55;;;8.05;;
41903;SDS011;27586;51.124;4.182;2023-09-07T04:59:52;8.77;;;7.97;;
41903;SDS011;27586;51.124;4.182;2023-09-07T05:02:18;8.18;;;7.30;;
41903;SDS011;27586;51.124;4.182;2023-09-07T05:04:44;8.93;;;8.00;;
41903;SDS011;27586;51.124;4.182;2023-09-07T05:07:10;8.95;;;8.15;;
41903;SDS011;27586;51.124;4.182;2023-09-07T05:09:35;8.82;;;8.00;;
41903;SDS011;27586;51.124;4.182;2023-09-07T05:12:01;8.70;;;7.82;;
41903;SDS011;27586;51.124;4.182;2023-09-07T05:14:27;10.43;;;7.68;;
41903;SDS011;27586;51.124;4.182;2023-09-07T05:16:54;10.65;;;8.15;;
41903;SDS011;27586;51.124;4.182;2023-09-07T05:19:21;8.00;;;7.20;;
41903;SDS011;27586;51.124;4.182;2023-09-07T05:21:47;10.98;;;8.05;;
41903;SDS011;27586;51.124;4.182;2023-09-07T05:24:13;9.68;;;7.75;;
41903;SDS011;27586;51.124;4.182;2023-09-07T05:26:40;10.77;;;7.97;;
41903;SDS011;27586;51.124;4.182;2023-09-07T05:29:06;10.30;;;8.10;;
41903;SDS011;27586;51.124;4.182;2023-09-07T05:31:32;8.90;;;8.00;;
41903;SDS011;27586;51.124;4.182;2023-09-07T05:33:58;8.70;;;7.80;;
41903;SDS011;27586;51.124;4.182;2023-09-07T05:36:23;8.88;;;8.00;;
41903;SDS011;27586;51.124;4.182;2023-09-07T05:38:49;8.55;;;7.43;;
41903;SDS011;27586;51.124;4.182;2023-09-07T05:41:15;8.70;;;7.82;;
41903;SDS011;27586;51.124;4.182;2023-09-07T05:43:40;8.50;;;7.65;;
41903;SDS011;27586;51.124;4.182;2023-09-07T05:46:06;8.48;;;7.65;;
41903;SDS011;27586;51.124;4.182;2023-09-07T05:48:32;10.32;;;8.05;;
41903;SDS011;27586;51.124;4.182;2023-09-07T05:50:57;10.60;;;8.35;;
41903;SDS011;27586;51.124;4.182;2023-09-07T05:53:23;8.65;;;7.53;;
41903;SDS011;27586;51.124;4.182;2023-09-07T05:55:50;10.30;;;7.90;;
41903;SDS011;27586;51.124;4.182;2023-09-07T05:58:16;8.95;;;8.05;;
41903;SDS011;27586;51.124;4.182;2023-09-07T06:00:41;9.57;;;8.07;;
41903;SDS011;27586;51.124;4.182;2023-09-07T06:03:08;8.63;;;7.82;;
41903;SDS011;27586;51.124;4.182;2023-09-07T06:05:34;8.98;;;7.72;;
41903;SDS011;27586;51.124;4.182;2023-09-07T06:08:01;9.73;;;8.00;;
41903;SDS011;27586;51.124;4.182;2023-09-07T06:10:27;8.48;;;7.65;;
41903;SDS011;27586;51.124;4.182;2023-09-07T06:12:54;8.50;;;7.35;;
41903;SDS011;27586;51.124;4.182;2023-09-07T06:15:20;9.98;;;8.07;;
41903;SDS011;27586;51.124;4.182;2023-09-07T06:17:46;10.52;;;8.10;;
41903;SDS011;27586;51.124;4.182;2023-09-07T06:20:12;12.18;;;8.48;;
41903;SDS011;27586;51.124;4.182;2023-09-07T06:22:39;8.52;;;7.28;;
41903;SDS011;27586;51.124;4.182;2023-09-07T06:25:04;9.23;;;7.75;;
41903;SDS011;27586;51.124;4.182;2023-09-07T06:27:30;10.80;;;7.68;;
41903;SDS011;27586;51.124;4.182;2023-09-07T06:29:56;9.27;;;8.30;;
41903;SDS011;27586;51.124;4.182;2023-09-07T06:32:21;8.80;;;7.88;;
41903;SDS011;27586;51.124;4.182;2023-09-07T06:34:47;11.70;;;8.38;;
41903;SDS011;27586;51.124;4.182;2023-09-07T06:37:13;9.50;;;7.93;;
41903;SDS011;27586;51.124;4.182;2023-09-07T06:39:39;10.45;;;8.57;;
41903;SDS011;27586;51.124;4.182;2023-09-07T06:42:07;8.68;;;7.82;;
41903;SDS011;27586;51.124;4.182;2023-09-07T06:44:34;9.00;;;7.88;;
41903;SDS011;27586;51.124;4.182;2023-09-07T06:47:00;10.50;;;8.25;;
41903;SDS011;27586;51.124;4.182;2023-09-07T06:49:25;11.80;;;8.00;;
41903;SDS011;27586;51.124;4.182;2023-09-07T06:51:54;11.48;;;8.10;;
41903;SDS011;27586;51.124;4.182;2023-09-07T06:54:22;11.50;;;8.60;;
41903;SDS011;27586;51.124;4.182;2023-09-07T06:56:48;10.63;;;8.27;;
41903;SDS011;27586;51.124;4.182;2023-09-07T06:59:14;11.23;;;8.07;;
41903;SDS011;27586;51.124;4.182;2023-09-07T07:01:39;10.98;;;8.05;;
41903;SDS011;27586;51.124;4.182;2023-09-07T07:04:05;13.10;;;8.13;;
41903;SDS011;27586;51.124;4.182;2023-09-07T07:06:31;16.52;;;8.27;;
41903;SDS011;27586;51.124;4.182;2023-09-07T07:08:57;14.30;;;7.95;;
41903;SDS011;27586;51.124;4.182;2023-09-07T07:11:23;10.25;;;8.20;;
41903;SDS011;27586;51.124;4.182;2023-09-07T07:13:48;11.60;;;7.63;;
41903;SDS011;27586;51.124;4.182;2023-09-07T07:16:16;11.70;;;7.97;;
41903;SDS011;27586;51.124;4.182;2023-09-07T07:18:42;14.48;;;7.97;;
41903;SDS011;27586;51.124;4.182;2023-09-07T07:21:07;10.05;;;7.28;;
41903;SDS011;27586;51.124;4.182;2023-09-07T07:23:34;11.68;;;7.72;;
41903;SDS011;27586;51.124;4.182;2023-09-07T07:26:00;14.88;;;7.45;;
41903;SDS011;27586;51.124;4.182;2023-09-07T07:28:25;15.35;;;7.10;;
41903;SDS011;27586;51.124;4.182;2023-09-07T07:30:51;16.52;;;7.22;;
41903;SDS011;27586;51.124;4.182;2023-09-07T07:33:18;11.75;;;7.97;;
41903;SDS011;27586;51.124;4.182;2023-09-07T07:35:44;13.43;;;7.45;;
41903;SDS011;27586;51.124;4.182;2023-09-07T07:38:11;15.60;;;6.95;;
41903;SDS011;27586;51.124;4.182;2023-09-07T07:40:38;12.48;;;6.68;;
41903;SDS011;27586;51.124;4.182;2023-09-07T07:43:04;14.18;;;6.78;;
41903;SDS011;27586;51.124;4.182;2023-09-07T07:45:31;12.88;;;6.60;;
41903;SDS011;27586;51.124;4.182;2023-09-07T07:48:01;15.10;;;6.82;;
41903;SDS011;27586;51.124;4.182;2023-09-07T07:50:27;8.35;;;5.70;;
41903;SDS011;27586;51.124;4.182;2023-09-07T07:52:53;12.73;;;6.63;;
41903;SDS011;27586;51.124;4.182;2023-09-07T07:55:18;9.85;;;5.78;;
41903;SDS011;27586;51.124;4.182;2023-09-07T07:57:44;11.23;;;6.35;;
41903;SDS011;27586;51.124;4.182;2023-09-07T08:00:10;9.60;;;6.03;;
41903;SDS011;27586;51.124;4.182;2023-09-07T08:02:36;8.52;;;6.20;;
41903;SDS011;27586;51.124;4.182;2023-09-07T08:05:02;10.20;;;5.68;;
41903;SDS011;27586;51.124;4.182;2023-09-07T08:07:29;11.35;;;6.25;;
41903;SDS011;27586;51.124;4.182;2023-09-07T08:09:54;9.77;;;5.70;;
41903;SDS011;27586;51.124;4.182;2023-09-07T08:12:20;11.10;;;6.30;;
41903;SDS011;27586;51.124;4.182;2023-09-07T08:14:46;13.18;;;6.43;;
41903;SDS011;27586;51.124;4.182;2023-09-07T08:17:12;11.65;;;5.85;;
41903;SDS011;27586;51.124;4.182;2023-09-07T08:19:37;9.85;;;5.57;;
41903;SDS011;27586;51.124;4.182;2023-09-07T08:22:04;13.05;;;5.53;;
41903;SDS011;27586;51.124;4.182;2023-09-07T08:24:30;10.90;;;5.40;;
41903;SDS011;27586;51.124;4.182;2023-09-07T08:26:56;9.73;;;5.40;;
41903;SDS011;27586;51.124;4.182;2023-09-07T08:29:23;13.57;;;5.70;;
41903;SDS011;27586;51.124;4.182;2023-09-07T08:31:51;10.38;;;4.72;;
41903;SDS011;27586;51.124;4.182;2023-09-07T08:34:18;12.07;;;5.20;;
41903;SDS011;27586;51.124;4.182;2023-09-07T08:36:46;13.57;;;5.80;;
41903;SDS011;27586;51.124;4.182;2023-09-07T08:39:14;8.80;;;5.22;;
41903;SDS011;27586;51.124;4.182;2023-09-07T08:41:40;8.63;;;5.30;;
41903;SDS011;27586;51.124;4.182;2023-09-07T08:44:15;9.60;;;5.15;;
41903;SDS011;27586;51.124;4.182;2023-09-07T08:46:42;8.45;;;5.35;;
41903;SDS011;27586;51.124;4.182;2023-09-07T08:49:09;12.80;;;5.38;;
41903;SDS011;27586;51.124;4.182;2023-09-07T08:51:36;10.63;;;5.13;;
41903;SDS011;27586;51.124;4.182;2023-09-07T08:54:03;8.90;;;4.68;;
41903;SDS011;27586;51.124;4.182;2023-09-07T08:56:29;10.13;;;4.50;;
41903;SDS011;27586;51.124;4.182;2023-09-07T08:58:55;10.48;;;5.07;;
41903;SDS011;27586;51.124;4.182;2023-09-07T09:01:21;7.65;;;5.10;;
41903;SDS011;27586;51.124;4.182;2023-09-07T09:03:47;9.05;;;4.32;;
41903;SDS011;27586;51.124;4.182;2023-09-07T09:06:17;5.63;;;4.38;;
41903;SDS011;27586;51.124;4.182;2023-09-07T09:08:44;6.85;;;4.80;;
41903;SDS011;27586;51.124;4.182;2023-09-07T09:11:15;7.80;;;4.70;;
41903;SDS011;27586;51.124;4.182;2023-09-07T09:13:44;8.50;;;4.28;;
41903;SDS011;27586;51.124;4.182;2023-09-07T09:16:10;6.82;;;3.97;;
41903;SDS011;27586;51.124;4.182;2023-09-07T09:18:38;7.32;;;4.05;;
41903;SDS011;27586;51.124;4.182;2023-09-07T09:21:04;7.50;;;4.28;;
41903;SDS011;27586;51.124;4.182;2023-09-07T09:23:34;7.68;;;4.00;;
41903;SDS011;27586;51.124;4.182;2023-09-07T09:26:01;4.25;;;3.15;;
41903;SDS011;27586;51.124;4.182;2023-09-07T09:28:31;5.40;;;3.67;;
41903;SDS011;27586;51.124;4.182;2023-09-07T09:31:00;8.90;;;4.50;;
41903;SDS011;27586;51.124;4.182;2023-09-07T09:33:29;6.38;;;3.67;;
41903;SDS011;27586;51.124;4.182;2023-09-07T09:35:56;7.22;;;3.85;;
41903;SDS011;27586;51.124;4.182;2023-09-07T09:38:22;5.15;;;3.90;;
41903;SDS011;27586;51.124;4.182;2023-09-07T09:40:48;6.10;;;3.67;;
41903;SDS011;27586;51.124;4.182;2023-09-07T09:43:14;6.50;;;3.90;;
41903;SDS011;27586;51.124;4.182;2023-09-07T09:45:40;6.30;;;3.80;;
41903;SDS011;27586;51.124;4.182;2023-09-07T09:48:06;5.32;;;3.30;;
41903;SDS011;27586;51.124;4.182;2023-09-07T09:50:32;4.45;;;3.33;;
41903;SDS011;27586;51.124;4.182;2023-09-07T09:53:05;5.70;;;3.67;;
41903;SDS011;27586;51.124;4.182;2023-09-07T09:55:34;5.57;;;3.30;;
41903;SDS011;27586;51.124;4.182;2023-09-07T09:58:00;4.47;;;3.65;;
41903;SDS011;27586;51.124;4.182;2023-09-07T10:00:27;4.35;;;3.50;;
41903;SDS011;27586;51.124;4.182;2023-09-07T10:02:55;4.10;;;3.40;;
41903;SDS011;27586;51.124;4.182;2023-09-07T10:05:26;6.03;;;3.58;;
41903;SDS011;27586;51.124;4.182;2023-09-07T10:07:52;5.57;;;3.75;;
41903;SDS011;27586;51.124;4.182;2023-09-07T10:10:25;5.80;;;3.50;;
41903;SDS011;27586;51.124;4.182;2023-09-07T10:12:51;4.72;;;3.35;;
41903;SDS011;27586;51.124;4.182;2023-09-07T10:17:50;6.82;;;3.40;;
41903;SDS011;27586;51.124;4.182;2023-09-07T10:20:27;8.52;;;3.45;;
41903;SDS011;27586;51.124;4.182;2023-09-07T10:23:05;8.60;;;3.50;;
41903;SDS011;27586;51.124;4.182;2023-09-07T10:25:30;6.35;;;3.60;;
41903;SDS011;27586;51.124;4.182;2023-09-07T10:27:57;7.65;;;3.80;;
41903;SDS011;27586;51.124;4.182;2023-09-07T10:30:24;5.97;;;3.55;;
41903;SDS011;27586;51.124;4.182;2023-09-07T10:32:50;6.90;;;3.50;;
41903;SDS011;27586;51.124;4.182;2023-09-07T10:35:16;7.78;;;3.60;;
41903;SDS011;27586;51.124;4.182;2023-09-07T10:37:45;8.13;;;4.75;;
41903;SDS011;27586;51.124;4.182;2023-09-07T10:40:23;7.97;;;3.50;;
41903;SDS011;27586;51.124;4.182;2023-09-07T10:43:00;8.20;;;3.08;;
41903;SDS011;27586;51.124;4.182;2023-09-07T10:45:27;5.22;;;3.17;;
41903;SDS011;27586;51.124;4.182;2023-09-07T10:47:53;7.03;;;3.53;;
41903;SDS011;27586;51.124;4.182;2023-09-07T10:50:18;5.15;;;3.35;;
41903;SDS011;27586;51.124;4.182;2023-09-07T10:52:44;3.90;;;2.75;;
41903;SDS011;27586;51.124;4.182;2023-09-07T10:55:10;4.13;;;2.90;;
41903;SDS011;27586;51.124;4.182;2023-09-07T10:57:43;5.05;;;3.72;;
41903;SDS011;27586;51.124;4.182;2023-09-07T11:00:12;5.35;;;3.20;;
41903;SDS011;27586;51.124;4.182;2023-09-07T11:02:39;6.32;;;3.42;;
41903;SDS011;27586;51.124;4.182;2023-09-07T11:05:06;5.68;;;3.45;;
41903;SDS011;27586;51.124;4.182;2023-09-07T11:07:33;4.63;;;3.40;;
41903;SDS011;27586;51.124;4.182;2023-09-07T11:09:59;5.45;;;3.22;;
41903;SDS011;27586;51.124;4.182;2023-09-07T11:12:25;4.45;;;3.05;;
41903;SDS011;27586;51.124;4.182;2023-09-07T11:14:51;4.20;;;2.80;;
41903;SDS011;27586;51.124;4.182;2023-09-07T11:17:18;6.20;;;3.10;;
41903;SDS011;27586;51.124;4.182;2023-09-07T11:19:43;5.93;;;3.58;;
41903;SDS011;27586;51.124;4.182;2023-09-07T11:22:09;5.30;;;3.22;;
41903;SDS011;27586;51.124;4.182;2023-09-07T11:24:35;3.40;;;3.08;;
41903;SDS011;27586;51.124;4.182;2023-09-07T11:27:01;4.60;;;2.75;;
41903;SDS011;27586;51.124;4.182;2023-09-07T11:29:33;5.72;;;3.10;;
41903;SDS011;27586;51.124;4.182;2023-09-07T11:32:05;6.30;;;2.90;;
41903;SDS011;27586;51.124;4.182;2023-09-07T11:34:34;5.50;;;3.38;;
41903;SDS011;27586;51.124;4.182;2023-09-07T11:37:02;4.78;;;3.10;;
41903;SDS011;27586;51.124;4.182;2023-09-07T11:39:28;7.45;;;3.28;;
41903;SDS011;27586;51.124;4.182;2023-09-07T11:41:54;6.72;;;3.20;;
41903;SDS011;27586;51.124;4.182;2023-09-07T11:44:19;4.07;;;3.13;;
41903;SDS011;27586;51.124;4.182;2023-09-07T11:46:46;4.40;;;2.90;;
41903;SDS011;27586;51.124;4.182;2023-09-07T11:49:12;6.68;;;3.25;;
41903;SDS011;27586;51.124;4.182;2023-09-07T11:51:38;3.22;;;2.85;;
41903;SDS011;27586;51.124;4.182;2023-09-07T11:54:04;4.85;;;2.70;;
41903;SDS011;27586;51.124;4.182;2023-09-07T11:56:30;5.32;;;3.10;;
41903;SDS011;27586;51.124;4.182;2023-09-07T11:58:56;3.08;;;2.78;;
41903;SDS011;27586;51.124;4.182;2023-09-07T12:01:22;10.55;;;3.35;;
41903;SDS011;27586;51.124;4.182;2023-09-07T12:03:48;4.05;;;2.67;;
41903;SDS011;27586;51.124;4.182;2023-09-07T12:06:14;4.38;;;2.95;;
41903;SDS011;27586;51.124;4.182;2023-09-07T12:08:42;3.47;;;2.83;;
41903;SDS011;27586;51.124;4.182;2023-09-07T12:11:22;5.68;;;3.00;;
41903;SDS011;27586;51.124;4.182;2023-09-07T12:13:48;4.10;;;2.80;;
41903;SDS011;27586;51.124;4.182;2023-09-07T12:16:13;3.03;;;2.53;;
41903;SDS011;27586;51.124;4.182;2023-09-07T12:18:39;5.32;;;2.80;;
41903;SDS011;27586;51.124;4.182;2023-09-07T12:21:05;5.43;;;2.33;;
41903;SDS011;27586;51.124;4.182;2023-09-07T12:23:31;4.88;;;2.65;;
41903;SDS011;27586;51.124;4.182;2023-09-07T12:25:56;3.53;;;2.50;;
41903;SDS011;27586;51.124;4.182;2023-09-07T12:28:22;3.97;;;2.80;;
41903;SDS011;27586;51.124;4.182;2023-09-07T12:30:48;5.03;;;2.60;;
41903;SDS011;27586;51.124;4.182;2023-09-07T12:33:14;5.38;;;2.67;;
41903;SDS011;27586;51.124;4.182;2023-09-07T12:35:39;4.80;;;2.70;;
41903;SDS011;27586;51.124;4.182;2023-09-07T12:38:05;4.32;;;2.97;;
41903;SDS011;27586;51.124;4.182;2023-09-07T12:40:32;4.57;;;2.60;;
41903;SDS011;27586;51.124;4.182;2023-09-07T12:42:57;3.25;;;2.47;;
41903;SDS011;27586;51.124;4.182;2023-09-07T12:45:23;2.75;;;2.55;;
41903;SDS011;27586;51.124;4.182;2023-09-07T12:47:49;4.15;;;2.63;;
41903;SDS011;27586;51.124;4.182;2023-09-07T12:50:14;4.38;;;2.60;;
41903;SDS011;27586;51.124;4.182;2023-09-07T12:52:40;3.97;;;2.67;;
41903;SDS011;27586;51.124;4.182;2023-09-07T12:55:06;3.70;;;2.45;;
41903;SDS011;27586;51.124;4.182;2023-09-07T12:57:32;2.95;;;2.63;;
41903;SDS011;27586;51.124;4.182;2023-09-07T12:59:58;3.05;;;2.47;;
41903;SDS011;27586;51.124;4.182;2023-09-07T13:02:24;3.38;;;2.50;;
41903;SDS011;27586;51.124;4.182;2023-09-07T13:04:50;2.90;;;2.60;;
41903;SDS011;27586;51.124;4.182;2023-09-07T13:07:15;3.83;;;2.58;;
41903;SDS011;27586;51.124;4.182;2023-09-07T13:09:44;3.60;;;2.70;;
41903;SDS011;27586;51.124;4.182;2023-09-07T13:12:10;4.75;;;2.50;;
41903;SDS011;27586;51.124;4.182;2023-09-07T13:14:36;4.32;;;2.35;;
41903;SDS011;27586;51.124;4.182;2023-09-07T13:17:02;4.75;;;2.53;;
41903;SDS011;27586;51.124;4.182;2023-09-07T13:19:27;4.72;;;2.65;;
41903;SDS011;27586;51.124;4.182;2023-09-07T13:21:54;9.80;;;2.90;;
41903;SDS011;27586;51.124;4.182;2023-09-07T13:24:19;3.70;;;2.42;;
41903;SDS011;27586;51.124;4.182;2023-09-07T13:26:48;6.07;;;2.88;;
41903;SDS011;27586;51.124;4.182;2023-09-07T13:29:15;3.22;;;2.65;;
41903;SDS011;27586;51.124;4.182;2023-09-07T13:31:41;3.08;;;2.65;;
41903;SDS011;27586;51.124;4.182;2023-09-07T13:34:07;4.85;;;2.60;;
41903;SDS011;27586;51.124;4.182;2023-09-07T13:36:32;7.43;;;2.60;;
41903;SDS011;27586;51.124;4.182;2023-09-07T13:38:58;4.22;;;2.80;;
41903;SDS011;27586;51.124;4.182;2023-09-07T13:41:24;2.35;;;2.15;;
41903;SDS011;27586;51.124;4.182;2023-09-07T13:43:50;2.97;;;2.40;;
41903;SDS011;27586;51.124;4.182;2023-09-07T13:46:16;5.38;;;2.88;;
41903;SDS011;27586;51.124;4.182;2023-09-07T13:48:42;3.75;;;2.33;;
41903;SDS011;27586;51.124;4.182;2023-09-07T13:51:07;3.85;;;2.40;;
41903;SDS011;27586;51.124;4.182;2023-09-07T13:53:33;3.75;;;2.50;;
41903;SDS011;27586;51.124;4.182;2023-09-07T13:55:58;2.53;;;2.33;;
41903;SDS011;27586;51.124;4.182;2023-09-07T13:58:24;2.85;;;2.33;;
41903;SDS011;27586;51.124;4.182;2023-09-07T14:00:50;2.63;;;2.42;;
41903;SDS011;27586;51.124;4.182;2023-09-07T14:03:16;3.42;;;2.40;;
41903;SDS011;27586;51.124;4.182;2023-09-07T14:05:41;3.25;;;2.80;;
41903;SDS011;27586;51.124;4.182;2023-09-07T14:08:07;4.07;;;2.40;;
41903;SDS011;27586;51.124;4.182;2023-09-07T14:10:33;4.53;;;2.83;;
41903;SDS011;27586;51.124;4.182;2023-09-07T14:12:58;4.35;;;2.58;;
41903;SDS011;27586;51.124;4.182;2023-09-07T14:15:24;2.58;;;2.38;;
41903;SDS011;27586;51.124;4.182;2023-09-07T14:17:50;3.88;;;2.92;;
41903;SDS011;27586;51.124;4.182;2023-09-07T14:20:15;3.22;;;2.92;;
41903;SDS011;27586;51.124;4.182;2023-09-07T14:22:41;4.88;;;2.97;;
41903;SDS011;27586;51.124;4.182;2023-09-07T14:25:07;4.18;;;3.13;;
41903;SDS011;27586;51.124;4.182;2023-09-07T14:27:33;3.50;;;2.78;;
41903;SDS011;27586;51.124;4.182;2023-09-07T14:29:58;3.90;;;2.97;;
41903;SDS011;27586;51.124;4.182;2023-09-07T14:32:24;3.22;;;2.78;;
41903;SDS011;27586;51.124;4.182;2023-09-07T14:34:50;4.25;;;2.85;;
41903;SDS011;27586;51.124;4.182;2023-09-07T14:37:15;3.78;;;2.83;;
41903;SDS011;27586;51.124;4.182;2023-09-07T14:39:41;5.07;;;2.55;;
41903;SDS011;27586;51.124;4.182;2023-09-07T14:42:12;4.70;;;2.63;;
41903;SDS011;27586;51.124;4.182;2023-09-07T14:44:41;3.72;;;2.53;;